Kissho — JD3124 — position and weather

sailwx.info

Track history (hours):
 
Tides and Currents Weather Stations Pressure Air Temp Water Temp Dewpoint Dewpoint Depression Visibility Wind Speed Wind Dir Waves Ship Positions

Kissho

Last reported at 2016-Feb-03 21:31 UTC. Time now 2016-Feb-11 06:29 UTC.
Position N 34°39' E 135°28'.

Length 30 m.

Type: Tug. MMSI: 431002115.

Date/timePositionNaut miles runAvg speedWind from/ knotsBaromVisibWave heightAir tempDewpointWater temp
2016-Feb-03 21:31N 34°39' E 135°28'0 0.0
2016-Feb-03 20:25N 34°39' E 135°28'0 0.0
2016-Feb-03 18:25N 34°39' E 135°28'0 0.0
2016-Feb-03 17:31N 34°39' E 135°28'0 0.0
2016-Feb-03 16:25N 34°39' E 135°28'0 0.0
2016-Feb-03 14:13N 34°39' E 135°28'0 0.0
2016-Feb-03 13:19N 34°39' E 135°28'  
2016-Jan-30 23:19N 34°39' E 135°28'0 0.0
2016-Jan-30 22:19N 34°39' E 135°28'0 0.0
2016-Jan-30 17:25N 34°39' E 135°28'0 0.0
2016-Jan-29 18:19N 34°39' E 135°28'2 0.1
2016-Jan-29 01:21N 34°39' E 135°26'8 9.7
2016-Jan-29 00:31N 34°34' E 135°18'2210.5
2016-Jan-28 22:25N 34°15' E 135°03'6 6.2
2016-Jan-28 21:32N 34°12' E 135°08'0 0.0
2016-Jan-28 20:32N 34°12' E 135°08'0 0.0
2016-Jan-28 19:32N 34°12' E 135°08'0 0.0
2016-Jan-28 18:32N 34°12' E 135°08'0 0.0
2016-Jan-28 17:32N 34°12' E 135°08'0 0.0
2016-Jan-28 16:33N 34°12' E 135°08'0 0.0
2016-Jan-28 15:32N 34°12' E 135°08'0 0.0
2016-Jan-28 14:29N 34°12' E 135°08'0 0.0
2016-Jan-28 13:29N 34°12' E 135°08'0 0.0
2016-Jan-28 12:32N 34°12' E 135°08'0 0.0
2016-Jan-28 11:32N 34°12' E 135°08'0 0.0
2016-Jan-28 10:30N 34°12' E 135°08'0 0.0
2016-Jan-28 09:32N 34°12' E 135°08'0 0.1
2016-Jan-28 08:29N 34°12' E 135°08'2 1.8
2016-Jan-28 07:33N 34°13' E 135°07'1 1.2
2016-Jan-28 06:28N 34°14' E 135°06'0 0.1
2016-Jan-28 05:31N 34°14' E 135°06'0 0.0
2016-Jan-28 04:31N 34°14' E 135°06'0 0.0
2016-Jan-28 03:31N 34°14' E 135°06'0 0.0
2016-Jan-28 02:07N 34°14' E 135°06'0 0.0
2016-Jan-28 01:31N 34°14' E 135°06'0 0.0
2016-Jan-28 00:31N 34°14' E 135°06'0 0.1
2016-Jan-27 23:33N 34°14' E 135°05'0 0.4
2016-Jan-27 22:26N 34°14' E 135°05'1 0.6
2016-Jan-27 21:08N 34°14' E 135°04'1 1.6
2016-Jan-27 20:33N 34°13' E 135°04'2 1.9
2016-Jan-27 19:24N 34°12' E 135°02'  
Track history (hours):
 
Tides and Currents Weather Stations Pressure Air Temp Water Temp Dewpoint Dewpoint Depression Visibility Wind Speed Wind Dir Waves Ship Positions

Kissho

Last reported at 2016-Feb-03 21:31 UTC. Time now 2016-Feb-11 06:29 UTC.
Position N 34°39' E 135°28'.

Length 30 m.

Type: Tug. MMSI: 431002115.

Date/timePositionNaut miles runAvg speedWind from/ knotsBaromVisibWave heightAir tempDewpointWater temp
2016-Feb-03 21:31N 34°39' E 135°28'0 0.0
2016-Feb-03 20:25N 34°39' E 135°28'0 0.0
2016-Feb-03 18:25N 34°39' E 135°28'0 0.0
2016-Feb-03 17:31N 34°39' E 135°28'0 0.0
2016-Feb-03 16:25N 34°39' E 135°28'0 0.0
2016-Feb-03 14:13N 34°39' E 135°28'0 0.0
2016-Feb-03 13:19N 34°39' E 135°28'  
2016-Jan-30 23:19N 34°39' E 135°28'0 0.0
2016-Jan-30 22:19N 34°39' E 135°28'0 0.0
2016-Jan-30 17:25N 34°39' E 135°28'0 0.0
2016-Jan-29 18:19N 34°39' E 135°28'2 0.1
2016-Jan-29 01:21N 34°39' E 135°26'8 9.7
2016-Jan-29 00:31N 34°34' E 135°18'2210.5
2016-Jan-28 22:25N 34°15' E 135°03'6 6.2
2016-Jan-28 21:32N 34°12' E 135°08'0 0.0
2016-Jan-28 20:32N 34°12' E 135°08'0 0.0
2016-Jan-28 19:32N 34°12' E 135°08'0 0.0
2016-Jan-28 18:32N 34°12' E 135°08'0 0.0
2016-Jan-28 17:32N 34°12' E 135°08'0 0.0
2016-Jan-28 16:33N 34°12' E 135°08'0 0.0
2016-Jan-28 15:32N 34°12' E 135°08'0 0.0
2016-Jan-28 14:29N 34°12' E 135°08'0 0.0
2016-Jan-28 13:29N 34°12' E 135°08'0 0.0
2016-Jan-28 12:32N 34°12' E 135°08'0 0.0
2016-Jan-28 11:32N 34°12' E 135°08'0 0.0
2016-Jan-28 10:30N 34°12' E 135°08'0 0.0
2016-Jan-28 09:32N 34°12' E 135°08'0 0.1
2016-Jan-28 08:29N 34°12' E 135°08'2 1.8
2016-Jan-28 07:33N 34°13' E 135°07'1 1.2
2016-Jan-28 06:28N 34°14' E 135°06'0 0.1
2016-Jan-28 05:31N 34°14' E 135°06'0 0.0
2016-Jan-28 04:31N 34°14' E 135°06'0 0.0
2016-Jan-28 03:31N 34°14' E 135°06'0 0.0
2016-Jan-28 02:07N 34°14' E 135°06'0 0.0
2016-Jan-28 01:31N 34°14' E 135°06'0 0.0
2016-Jan-28 00:31N 34°14' E 135°06'0 0.1
2016-Jan-27 23:33N 34°14' E 135°05'0 0.4
2016-Jan-27 22:26N 34°14' E 135°05'1 0.6
2016-Jan-27 21:08N 34°14' E 135°04'1 1.6
2016-Jan-27 20:33N 34°13' E 135°04'2 1.9
2016-Jan-27 19:24N 34°12' E 135°02'  

Dump ship's entire track history